Merced Regional Macready Field
KMCE : rendu visible

Aérodrome :











RETROUVEZ-NOUS SUR...

 
LOGIN :

S'inscrire | Disclaimer

   EN    FR    IT 

 









Légende :    VFR   VFR Marginal   IFR   IFR Intensif   IFR Très Intensif
Visi : 
Plafond : 
>= 8 km
>= 3000ft
5 à 8 km
1000 à 3000 ft
1500m à 5 km
500 à 1000 ft
800 à 1500m
200 à 500 ft
< 800m
< 200 ft
Symboles :   Orages  Brouillard  Fortes neiges  Fortes précipitations  Vent > 20 kt






- Altitude de l'aérodrome : 155 ft
- Code IATA : MCE


KMCE - Merced Regional Macready Field

DERNIER METAR :
  • 201653Z AUTO 11005KT 8SM CLR 09/08 A2953 RMK AO2 SLP999 T00940078

METARs EXPIRÉS :
  • 201553Z AUTO 11005KT 7SM CLR 07/06 A2953 RMK AO2 SLP998 T00720061
  • 201453Z AUTO 15003KT 5SM BR CLR 04/03 A2952 RMK AO2 SLP994 T00440033 50007

TAF KMCE
Valide du 20 à 12h jusqu'au 21 à 12h UTC


201120Z 2012/2112 31005KT P6SM SKC
FM201400 31006KT P6SM BKN200
FM202000 14007KT P6SM BKN200
FM210600 14005KT 6SM HZ BKN250



MET'MAP, la Météo Aéronautique d'un coup d'oeil ! - Copyright ORBIFLY Décembre 2007 - Disclaimer

ORBIFLY MET'MAP TEAM :

Programmation & Développement : Alexandra Zaïnal
Conception & Développement : Baudouin d'Aumeries
Co-Programmation & Développement : Marc-Olivier Méhu
Soutien technique & logistique : Manuel Goepfert

Contact : metmap@orbifly.com




SOURCES & CREDITS :

   NOAA       Earth
Advisory